Time;durP1;ratioP1;P1;durP2;ratioP2;P2;SDS_P1;SDS_P2;PMS_P1;PMS_P2;Temp;Humidity;BMP_temperature;BMP_pressure;BME280_temperature;BME280_humidity;BME280_pressure;Samples;Min_cycle;Max_cycle;Signal;HPM_P1;HPM_P2
2022/11/18 00:52:11;;;;;;;9.00;5.10;;;;;;;-2.72;100.00;98538.03;1841450;76;26122;-62
2022/11/18 00:54:39;;;;;;;6.83;5.22;;;;;;;-2.27;100.00;98544.97;1807780;77;21406;-63
2022/11/18 00:57:06;;;;;;;6.53;5.28;;;;;;;-2.04;100.00;98547.33;1811423;77;22002;-65
2022/11/18 00:59:33;;;;;;;8.18;5.08;;;;;;;-1.88;100.00;98532.59;1814694;76;21685;-62
2022/11/18 01:02:00;;;;;;;8.03;5.65;;;;;;;-1.73;100.00;98531.58;1817213;77;21408;-62
2022/11/18 01:04:26;;;;;;;7.10;5.17;;;;;;;-1.57;100.00;98533.53;1822347;78;21564;-61
2022/11/18 01:06:53;;;;;;;7.83;5.08;;;;;;;-1.46;100.00;98534.70;1818985;77;21579;-62
2022/11/18 01:09:20;;;;;;;5.37;4.65;;;;;;;-1.39;100.00;98520.42;1753983;79;21773;-63
2022/11/18 01:14:32;;;;;;;5.15;4.70;;;;;;;-1.18;100.00;98520.57;1813096;77;21608;-62
2022/11/18 01:17:00;;;;;;;6.53;5.12;;;;;;;-1.13;100.00;98523.11;1815189;77;28636;-61
2022/11/18 01:19:26;;;;;;;5.67;5.10;;;;;;;-1.11;100.00;98530.39;1804161;78;21625;-61
2022/11/18 01:21:55;;;;;;;5.83;5.30;;;;;;;-1.04;100.00;98525.98;1809834;77;21434;-63
2022/11/18 01:24:22;;;;;;;4.85;4.42;;;;;;;-1.01;100.00;98529.81;1817497;78;21523;-62
2022/11/18 01:26:48;;;;;;;5.60;4.67;;;;;;;-0.94;100.00;98524.99;1752579;80;20969;-62
2022/11/18 01:29:15;;;;;;;5.53;5.00;;;;;;;-0.87;100.00;98522.71;1758590;80;21509;-61
2022/11/18 01:31:41;;;;;;;4.80;4.30;;;;;;;-0.86;100.00;98521.85;1824563;77;21043;-61
2022/11/18 01:34:08;;;;;;;5.08;4.58;;;;;;;-0.80;100.00;98523.05;1817169;78;21594;-61
2022/11/18 01:36:35;;;;;;;5.37;4.87;;;;;;;-0.71;100.00;98522.06;1800786;78;21478;-61
2022/11/18 01:39:01;;;;;;;6.80;5.20;;;;;;;-0.66;100.00;98525.44;1813100;78;21500;-62
2022/11/18 01:41:28;;;;;;;5.00;4.50;;;;;;;-0.57;100.00;98536.48;1771382;78;21607;-62
2022/11/18 01:44:04;;;;;;;5.72;4.80;;;;;;;-0.53;100.00;98527.36;1818858;77;21410;-62
2022/11/18 01:46:32;;;;;;;4.90;4.28;;;;;;;-0.50;100.00;98532.48;1800995;78;21751;-61
2022/11/18 01:49:03;;;;;;;4.83;4.35;;;;;;;-0.55;100.00;98532.99;1813946;77;21525;-61
2022/11/18 01:51:35;;;;;;;5.28;4.40;;;;;;;-0.55;100.00;98529.56;1734133;80;21532;-61
2022/11/18 01:54:07;;;;;;;5.12;4.65;;;;;;;-0.54;100.00;98529.55;1755748;80;21580;-62
2022/11/18 01:56:42;;;;;;;4.92;4.17;;;;;;;-0.50;100.00;98533.78;1797927;77;21088;-61
2022/11/18 01:59:12;;;;;;;6.58;5.22;;;;;;;-0.44;100.00;98536.26;1815982;78;21849;-63
2022/11/18 02:01:39;;;;;;;7.30;4.55;;;;;;;-0.37;100.00;98538.32;1808270;78;21686;-63
2022/11/18 02:04:06;;;;;;;6.03;5.53;;;;;;;-0.37;100.00;98533.59;1807136;78;21687;-63
2022/11/18 02:06:33;;;;;;;6.87;5.10;;;;;;;-0.39;100.00;98536.20;1742905;80;21549;-59
2022/11/18 02:09:02;;;;;;;6.40;4.78;;;;;;;-0.37;100.00;98543.93;1753751;79;21561;-61
2022/11/18 02:14:14;;;;;;;6.00;4.80;;;;;;;-0.28;100.00;98542.05;1811113;77;21501;-61
2022/11/18 02:17:03;;;;;;;7.62;4.62;;;;;;;-0.21;100.00;98542.78;1811184;77;21552;-60
2022/11/18 02:19:45;;;;;;;7.00;4.95;;;;;;;-0.20;100.00;98554.38;1803564;78;22062;-61
2022/11/18 02:22:43;;;;;;;8.55;5.45;;;;;;;-0.23;100.00;98551.00;1747309;80;21615;-62
2022/11/18 02:25:42;;;;;;;8.93;5.00;;;;;;;-0.27;100.00;98545.02;1699114;81;22179;-61
2022/11/18 02:28:31;;;;;;;8.15;5.08;;;;;;;-0.25;100.00;98544.55;1815449;78;21516;-62
2022/11/18 02:31:14;;;;;;;11.57;4.80;;;;;;;-0.24;100.00;98547.56;1823835;78;21422;-62
2022/11/18 02:33:56;;;;;;;7.12;4.87;;;;;;;-0.21;100.00;98548.82;1741998;80;21793;-62
2022/11/18 02:36:29;;;;;;;8.10;5.40;;;;;;;-0.18;100.00;98553.07;1741793;80;21480;-62
2022/11/18 02:39:04;;;;;;;7.00;5.00;;;;;;;-0.17;100.00;98548.75;1819963;78;21825;-62
2022/11/18 02:41:32;;;;;;;10.23;5.62;;;;;;;-0.18;100.00;98549.20;1802617;77;21537;-61
2022/11/18 02:44:06;;;;;;;7.95;5.58;;;;;;;-0.13;100.00;98555.56;1806618;77;21616;-62
2022/11/18 02:46:34;;;;;;;9.23;4.58;;;;;;;-0.13;100.00;98555.15;1805044;77;21565;-62
2022/11/18 02:49:03;;;;;;;8.00;5.80;;;;;;;-0.11;100.00;98548.67;1819453;77;21002;-62
2022/11/18 02:51:30;;;;;;;12.15;5.65;;;;;;;-0.08;100.00;98550.73;1811102;77;21818;-62
2022/11/18 02:54:00;;;;;;;12.13;6.08;;;;;;;-0.06;100.00;98559.75;1811378;77;21549;-62
2022/11/18 02:56:28;;;;;;;10.15;5.80;;;;;;;-0.08;100.00;98558.48;1810619;78;21674;-62
2022/11/18 02:58:55;;;;;;;9.38;5.62;;;;;;;-0.12;100.00;98556.84;1702787;81;21466;-62
2022/11/18 03:01:28;;;;;;;9.50;5.45;;;;;;;-0.15;100.00;98556.03;1752040;80;21335;-62
2022/11/18 03:03:55;;;;;;;11.10;6.28;;;;;;;-0.17;100.00;98556.08;1771918;78;21797;-62
2022/11/18 03:06:29;;;;;;;9.63;5.40;;;;;;;-0.14;100.00;98570.67;1804583;78;21508;-61
2022/11/18 03:09:20;;;;;;;14.63;6.85;;;;;;;-0.14;100.00;98570.67;1818041;78;21555;-66
2022/11/18 03:12:04;;;;;;;9.20;5.45;;;;;;;-0.12;100.00;98559.87;1749574;80;21112;-62
2022/11/18 03:14:52;;;;;;;11.63;6.15;;;;;;;-0.14;100.00;98555.17;1800703;78;21424;-62
2022/11/18 03:17:39;;;;;;;12.18;6.37;;;;;;;-0.20;100.00;98557.41;1824302;77;21857;-61
2022/11/18 03:20:12;;;;;;;9.80;6.20;;;;;;;-0.21;100.00;98546.66;1832450;77;21485;-62
2022/11/18 03:23:26;;;;;;;13.53;6.80;;;;;;;-0.20;100.00;98547.92;1809945;77;20970;-61
2022/11/18 03:26:04;;;;;;;12.15;5.95;;;;;;;-0.20;100.00;98545.34;1703322;81;21514;-60
2022/11/18 03:28:41;;;;;;;10.75;5.90;;;;;;;-0.26;100.00;98557.52;1708210;81;21478;-61
2022/11/18 03:31:26;;;;;;;11.73;6.37;;;;;;;-0.26;100.00;98565.27;1723248;80;21919;-62
2022/11/18 03:33:59;;;;;;;10.78;6.35;;;;;;;-0.26;100.00;98566.12;1745325;79;21592;-60
2022/11/18 03:36:28;;;;;;;12.63;6.35;;;;;;;-0.24;100.00;98569.53;1802557;77;20935;-62
2022/11/18 03:38:58;;;;;;;9.45;6.45;;;;;;;-0.19;100.00;98573.31;1776067;78;21541;-61
2022/11/18 03:41:27;;;;;;;10.20;5.95;;;;;;;-0.16;100.00;98575.86;1805456;78;20946;-61
2022/11/18 03:43:57;;;;;;;10.75;6.30;;;;;;;-0.14;100.00;98573.25;1803714;77;21812;-61
2022/11/18 03:46:28;;;;;;;9.55;6.53;;;;;;;-0.15;100.00;98581.45;1821555;78;20986;-60
2022/11/18 03:48:56;;;;;;;9.75;6.03;;;;;;;-0.14;100.00;98577.97;1809065;78;21497;-60
2022/11/18 03:51:35;;;;;;;8.93;6.40;;;;;;;-0.13;100.00;98582.28;1801653;77;21572;-62
2022/11/18 03:54:16;;;;;;;12.73;6.35;;;;;;;-0.12;100.00;98583.97;1823645;78;21569;-61
2022/11/18 03:56:46;;;;;;;10.75;6.30;;;;;;;-0.09;100.00;98581.80;1763582;80;21892;-62
2022/11/18 03:59:21;;;;;;;11.57;6.92;;;;;;;-0.13;100.00;98580.98;1791862;78;21682;-62
2022/11/18 04:01:55;;;;;;;10.55;6.08;;;;;;;-0.15;100.00;98582.75;1808873;78;21474;-61
2022/11/18 04:04:22;;;;;;;9.68;6.53;;;;;;;-0.17;100.00;98583.63;1819631;77;21648;-62
2022/11/18 04:07:06;;;;;;;7.10;5.75;;;;;;;-0.23;100.00;98584.17;1803397;78;21443;-62
2022/11/18 04:09:41;;;;;;;8.05;5.45;;;;;;;-0.24;100.00;98581.60;1811496;78;21814;-62
2022/11/18 04:12:11;;;;;;;9.70;5.97;;;;;;;-0.24;100.00;98581.16;1807879;77;21556;-61
2022/11/18 04:14:43;;;;;;;13.80;6.40;;;;;;;-0.19;100.00;98586.23;1811389;78;21530;-62
2022/11/18 04:17:16;;;;;;;10.25;5.53;;;;;;;-0.16;100.00;98587.48;1744324;80;21512;-63
2022/11/18 04:19:43;;;;;;;11.28;5.87;;;;;;;-0.12;100.00;98590.87;1740608;81;21409;-62
2022/11/18 04:22:11;;;;;;;16.05;6.30;;;;;;;-0.06;100.00;98594.23;1749566;80;21420;-62
2022/11/18 04:24:39;;;;;;;12.10;5.80;;;;;;;-0.04;100.00;98589.88;1766341;80;21529;-62
2022/11/18 04:27:06;;;;;;;7.58;5.42;;;;;;;-0.04;100.00;98582.55;1816920;77;21652;-61
2022/11/18 04:29:33;;;;;;;6.62;5.42;;;;;;;-0.03;100.00;98585.11;1823398;77;21456;-62
2022/11/18 04:32:00;;;;;;;7.60;5.20;;;;;;;-0.01;100.00;98586.38;1825591;77;21407;-62
2022/11/18 04:34:27;;;;;;;13.65;6.40;;;;;;;-0.01;100.00;98588.52;1810482;78;22055;-61
2022/11/18 04:36:54;;;;;;;11.33;6.40;;;;;;;0.01;100.00;98583.77;1749180;79;21596;-61
2022/11/18 04:39:21;;;;;;;14.80;6.10;;;;;;;0.02;100.00;98588.92;1737601;80;21533;-62
2022/11/18 04:41:57;;;;;;;8.70;5.45;;;;;;;0.03;100.00;98589.77;1813554;77;21522;-61
2022/11/18 04:44:27;;;;;;;7.80;5.75;;;;;;;0.06;100.00;98592.28;1740101;80;21029;-62
2022/11/18 04:46:55;;;;;;;10.35;5.62;;;;;;;0.08;100.00;98598.30;1738638;81;21956;-61
2022/11/18 04:49:21;;;;;;;;;;;;;;;0.08;100.00;98598.30;1781900;78;21505;-64
2022/11/18 04:51:48;;;;;;;8.60;5.03;;;;;;;0.00;100.00;98607.48;1732362;81;20432;-62
2022/11/18 04:54:16;;;;;;;9.45;5.10;;;;;;;-0.02;100.00;98609.21;1811949;77;21474;-62
2022/11/18 04:56:43;;;;;;;8.78;4.67;;;;;;;0.00;100.00;98615.23;1818494;78;21423;-62
2022/11/18 06:01:05;;;;;;;10.90;6.87;;;;;;;-2.36;100.00;98672.05;1810888;76;27482;-62
2022/11/18 06:03:39;;;;;;;;;;;;;;;-1.93;100.00;98674.77;1788934;78;21506;-65
2022/11/18 06:06:07;;;;;;;9.90;5.15;;;;;;;-1.72;100.00;98669.86;1798440;78;22115;-64
2022/11/18 06:08:38;;;;;;;10.95;6.45;;;;;;;-1.58;100.00;98676.20;1797575;78;21517;-63
2022/11/18 06:11:06;;;;;;;10.08;6.62;;;;;;;-1.46;100.00;98681.67;1802104;77;21457;-65
2022/11/18 06:13:38;;;;;;;10.80;7.03;;;;;;;-1.33;100.00;98678.09;1800680;78;21631;-63
2022/11/18 06:16:06;;;;;;;10.08;7.33;;;;;;;-1.20;100.00;98677.54;1760528;79;21474;-64
2022/11/18 06:18:34;;;;;;;9.63;7.75;;;;;;;-1.06;100.00;98676.08;1795021;78;21509;-63
2022/11/18 06:21:04;;;;;;;9.35;8.08;;;;;;;-0.95;100.00;98678.10;1761841;78;21497;-62
2022/11/18 06:23:34;;;;;;;10.78;8.10;;;;;;;-0.82;100.00;98677.08;1793616;78;21577;-61
2022/11/18 06:26:00;;;;;;;9.98;7.42;;;;;;;-0.70;100.00;98671.34;1803460;78;21092;-59
2022/11/18 06:28:27;;;;;;;9.08;8.15;;;;;;;-0.56;100.00;98675.91;1765296;80;21495;-58
2022/11/18 06:30:54;;;;;;;9.88;8.38;;;;;;;-0.45;100.00;98671.89;1696773;81;21956;-63
2022/11/18 06:33:20;;;;;;;8.83;7.92;;;;;;;-0.34;100.00;98682.05;1802449;78;21099;-61
2022/11/18 06:35:48;;;;;;;10.82;7.95;;;;;;;-0.26;100.00;98677.66;1809924;78;26888;-63
2022/11/18 06:38:14;;;;;;;8.48;7.47;;;;;;;-0.24;100.00;98681.91;1758341;80;21498;-61
2022/11/18 06:40:43;;;;;;;8.93;7.10;;;;;;;-0.17;100.00;98683.10;1802181;78;21602;-62
2022/11/18 06:48:35;;;;;;;8.83;7.17;;;;;;;0.05;100.00;98688.81;1760147;78;21576;-62
2022/11/18 06:51:06;;;;;;;8.28;7.42;;;;;;;0.10;100.00;98685.27;1801550;78;21572;-61
2022/11/18 06:53:52;;;;;;;7.35;6.55;;;;;;;0.17;100.00;98688.18;1790484;78;21517;-61
2022/11/18 06:56:20;;;;;;;8.28;7.47;;;;;;;0.25;100.00;98686.77;1763509;79;21713;-60
2022/11/18 06:58:50;;;;;;;10.23;7.47;;;;;;;0.32;100.00;98687.50;1771205;79;21490;-59
2022/11/18 07:01:22;;;;;;;8.80;7.15;;;;;;;0.36;100.00;98686.14;1763247;79;21531;-59
2022/11/18 07:03:49;;;;;;;9.58;8.25;;;;;;;0.39;100.00;98691.25;1765160;79;21112;-60
2022/11/18 07:06:21;;;;;;;8.88;7.40;;;;;;;0.43;100.00;98697.67;1797019;78;21556;-60
2022/11/18 07:08:48;;;;;;;8.05;7.25;;;;;;;0.45;100.00;98701.08;1796735;78;21430;-61
2022/11/18 07:11:18;;;;;;;8.37;7.00;;;;;;;0.47;100.00;98700.20;1799816;78;21585;-62
2022/11/18 07:13:45;;;;;;;7.87;6.90;;;;;;;0.48;100.00;98707.51;1758394;78;21458;-58
2022/11/18 07:16:21;;;;;;;7.47;6.28;;;;;;;0.53;100.00;98702.67;1790575;78;21564;-56
2022/11/18 07:18:49;;;;;;;8.23;6.65;;;;;;;0.54;100.00;98708.23;1766240;80;21431;-58
2022/11/18 07:21:19;;;;;;;7.90;7.15;;;;;;;0.56;100.00;98712.10;1766515;80;22214;-57
2022/11/18 07:23:46;;;;;;;7.58;6.85;;;;;;;0.57;100.00;98720.29;1765390;80;21618;-58
2022/11/18 07:26:13;;;;;;;7.65;6.85;;;;;;;0.63;100.00;98722.77;1734660;81;21512;-57
2022/11/18 07:28:40;;;;;;;;;;;;;;;0.64;100.00;98727.48;1764179;80;21445;-57
2022/11/18 07:31:11;;;;;;;6.85;6.20;;;;;;;0.60;100.00;98723.25;1736318;82;20438;-57
2022/11/18 07:33:39;;;;;;;8.53;7.65;;;;;;;0.66;100.00;98727.02;1738260;82;21972;-57
2022/11/18 07:36:12;;;;;;;7.95;7.25;;;;;;;0.71;100.00;98727.80;1758997;80;21682;-57
2022/11/18 07:38:41;;;;;;;8.35;7.05;;;;;;;0.69;100.00;98725.69;1760863;80;21521;-58
2022/11/18 07:41:13;;;;;;;7.83;6.90;;;;;;;0.74;100.00;98723.88;1771955;80;21022;-58
2022/11/18 07:43:40;;;;;;;6.33;5.78;;;;;;;0.80;100.00;98719.87;1760890;80;21541;-58
2022/11/18 07:46:21;;;;;;;5.70;5.20;;;;;;;0.90;100.00;98720.11;1766022;79;21782;-58
2022/11/18 07:48:51;;;;;;;5.80;5.20;;;;;;;0.95;100.00;98718.75;1744079;80;21450;-58
2022/11/18 07:51:21;;;;;;;5.83;5.33;;;;;;;0.98;100.00;98714.81;1764174;79;21488;-58
2022/11/18 07:53:48;;;;;;;6.85;6.15;;;;;;;1.00;100.00;98719.94;1803161;78;21394;-58
2022/11/18 07:56:15;;;;;;;6.92;5.30;;;;;;;1.02;100.00;98725.94;1807301;78;21425;-58
2022/11/18 07:58:41;;;;;;;6.72;6.05;;;;;;;1.00;100.00;98723.41;1771371;80;21707;-57
2022/11/18 08:01:13;;;;;;;6.92;6.22;;;;;;;1.00;100.00;98729.00;1806079;78;21516;-58
2022/11/18 08:03:42;;;;;;;6.87;6.17;;;;;;;0.99;100.00;98732.48;1765508;79;21025;-58
2022/11/18 08:06:10;;;;;;;6.78;6.17;;;;;;;0.97;100.00;98740.28;1792648;78;21166;-58
2022/11/18 08:08:37;;;;;;;6.20;5.67;;;;;;;0.97;100.00;98742.87;1764784;80;21522;-59
2022/11/18 08:11:06;;;;;;;6.20;5.67;;;;;;;1.01;100.00;98747.09;1801707;78;21418;-59
2022/11/18 08:13:35;;;;;;;6.90;6.30;;;;;;;1.04;100.00;98747.50;1771631;79;21411;-59
2022/11/18 08:16:04;;;;;;;6.85;6.25;;;;;;;1.08;100.00;98755.62;1800584;77;21612;-59
2022/11/18 08:18:31;;;;;;;7.42;6.15;;;;;;;1.10;100.00;98756.44;1791636;78;21524;-60
2022/11/18 08:21:02;;;;;;;6.62;5.75;;;;;;;1.14;100.00;98760.67;1762524;80;20934;-59
2022/11/18 08:23:30;;;;;;;5.85;5.33;;;;;;;1.12;100.00;98763.28;1795504;78;21784;-60
2022/11/18 08:26:09;;;;;;;6.08;5.50;;;;;;;1.13;100.00;98770.61;1797222;78;21550;-60
2022/11/18 08:28:38;;;;;;;5.95;5.22;;;;;;;1.18;100.00;98768.80;1766210;79;21530;-60
2022/11/18 08:31:14;;;;;;;7.80;5.92;;;;;;;1.23;100.00;98768.72;1804348;78;21426;-59
2022/11/18 08:33:42;;;;;;;;;;;;;;;1.24;100.00;98767.83;1765280;80;21104;-59
2022/11/18 08:36:18;;;;;;;6.78;5.28;;;;;;;1.19;100.00;98771.81;1770190;79;21957;-59
2022/11/18 08:38:47;;;;;;;6.08;5.47;;;;;;;1.19;100.00;98770.94;1734537;80;21036;-59
2022/11/18 08:41:20;;;;;;;5.33;4.83;;;;;;;1.20;100.00;98773.50;1760065;80;21506;-59
2022/11/18 08:43:47;;;;;;;6.10;5.45;;;;;;;1.24;100.00;98772.55;1798693;78;21514;-59
2022/11/18 08:46:14;;;;;;;5.83;5.28;;;;;;;1.30;100.00;98772.46;1773578;79;21671;-59
2022/11/18 08:48:40;;;;;;;6.12;5.35;;;;;;;1.31;100.00;98778.48;1801798;78;21508;-58
2022/11/18 08:51:10;;;;;;;5.25;4.75;;;;;;;1.33;100.00;98781.89;1805090;78;21584;-58
2022/11/18 08:53:37;;;;;;;5.45;4.95;;;;;;;1.34;100.00;98782.33;1765240;80;21481;-59
2022/11/18 08:56:05;;;;;;;5.53;5.03;;;;;;;1.30;100.00;98787.13;1799388;78;20958;-60
2022/11/18 08:58:31;;;;;;;5.47;4.90;;;;;;;1.30;100.00;98789.30;1784016;77;21505;-59
2022/11/18 09:01:05;;;;;;;5.72;5.15;;;;;;;1.29;100.00;98780.25;1751983;80;22017;-59
2022/11/18 09:03:31;;;;;;;6.50;5.90;;;;;;;1.32;100.00;98789.27;1746688;80;21081;-59
2022/11/18 09:06:12;;;;;;;5.40;4.90;;;;;;;1.33;100.00;98789.66;1794035;78;20942;-58
2022/11/18 09:08:40;;;;;;;5.17;4.67;;;;;;;1.30;100.00;98781.95;1797580;78;21555;-58
2022/11/18 09:11:10;;;;;;;5.87;5.30;;;;;;;1.30;100.00;98782.82;1796340;77;21649;-58
2022/11/18 09:13:42;;;;;;;5.22;4.65;;;;;;;1.30;100.00;98785.41;1809835;78;21760;-58
2022/11/18 09:16:09;;;;;;;5.80;5.20;;;;;;;1.31;100.00;98795.32;1765140;78;21004;-58
2022/11/18 09:18:36;;;;;;;6.10;5.50;;;;;;;1.28;100.00;98796.25;1791668;78;21454;-58
2022/11/18 09:21:08;;;;;;;5.95;5.42;;;;;;;1.28;100.00;98799.25;1799037;78;20990;-58
2022/11/18 09:23:36;;;;;;;5.47;4.85;;;;;;;1.24;100.00;98791.13;1796935;78;21378;-58
2022/11/18 09:26:07;;;;;;;5.50;5.03;;;;;;;1.27;100.00;98802.73;1797117;78;21884;-58
2022/11/18 09:28:35;;;;;;;5.53;5.03;;;;;;;1.24;100.00;98807.52;1760219;78;21549;-58
2022/11/18 09:31:08;;;;;;;5.33;4.83;;;;;;;1.26;100.00;98811.37;1774428;78;21528;-57
2022/11/18 09:33:36;;;;;;;5.62;5.08;;;;;;;1.23;100.00;98804.98;1746726;79;21417;-59
2022/11/18 09:36:16;;;;;;;5.33;4.83;;;;;;;1.26;100.00;98797.13;1766217;80;20990;-58
2022/11/18 09:38:44;;;;;;;6.45;4.72;;;;;;;1.29;100.00;98800.97;1732308;81;21931;-58
2022/11/18 09:41:44;;;;;;;6.03;5.42;;;;;;;1.30;100.00;98803.54;1730513;81;21029;-58
2022/11/18 09:44:53;;;;;;;5.75;5.25;;;;;;;1.34;100.00;98796.56;1798233;78;21045;-59
2022/11/18 09:47:33;;;;;;;6.25;5.12;;;;;;;1.38;100.00;98794.78;1789056;78;21642;-60
2022/11/18 09:50:08;;;;;;;9.00;5.37;;;;;;;1.40;100.00;98796.44;1799655;78;21434;-58
2022/11/18 09:52:49;;;;;;;6.25;5.65;;;;;;;1.40;100.00;98793.85;1769585;78;21424;-59
2022/11/18 09:55:17;;;;;;;6.62;5.60;;;;;;;1.38;100.00;98789.14;1783325;78;21499;-59
2022/11/18 09:57:54;;;;;;;7.00;5.20;;;;;;;1.36;100.00;98802.57;1793846;78;21457;-61
2022/11/18 10:00:25;;;;;;;5.95;5.33;;;;;;;1.34;100.00;98803.05;1803209;78;21509;-59
2022/11/18 10:03:08;;;;;;;5.72;5.08;;;;;;;1.34;100.00;98801.75;1787018;78;21567;-59
2022/11/18 10:05:59;;;;;;;6.97;5.45;;;;;;;1.40;100.00;98798.19;1770863;78;21979;-60
2022/11/18 10:09:09;;;;;;;6.45;5.85;;;;;;;1.42;100.00;98789.94;1787358;78;21005;-56
2022/11/18 10:11:47;;;;;;;5.60;5.03;;;;;;;1.46;100.00;98782.07;1796980;77;21441;-58
2022/11/18 10:14:43;;;;;;;5.03;4.62;;;;;;;1.46;100.00;98785.11;1748145;80;21606;-60
2022/11/18 10:17:33;;;;;;;7.55;5.30;;;;;;;1.51;100.00;98787.17;1770295;80;21060;-56
2022/11/18 10:20:21;;;;;;;6.85;6.12;;;;;;;1.57;100.00;98779.72;1763602;79;22094;-58
2022/11/18 10:23:09;;;;;;;6.30;5.67;;;;;;;1.63;100.00;98779.14;1758273;79;21541;-57
2022/11/18 10:25:36;;;;;;;6.62;6.03;;;;;;;1.66;100.00;98778.24;1768765;79;21520;-58
2022/11/18 10:28:16;;;;;;;7.53;6.10;;;;;;;1.60;100.00;98779.22;1803687;78;21578;-57
2022/11/18 10:30:43;;;;;;;6.08;5.47;;;;;;;1.58;100.00;98785.30;1799674;78;21482;-57
2022/11/18 10:33:25;;;;;;;8.68;6.60;;;;;;;1.60;100.00;98784.83;1746282;78;22238;-56
2022/11/18 10:36:33;;;;;;;8.03;6.25;;;;;;;1.60;100.00;98796.06;1760770;80;21502;-57
2022/11/18 10:39:14;;;;;;;6.92;6.22;;;;;;;1.66;100.00;98792.50;1663975;83;21461;-56
2022/11/18 10:41:47;;;;;;;6.83;5.78;;;;;;;1.70;100.00;98783.77;1651968;84;21562;-59
2022/11/18 10:44:40;;;;;;;8.03;6.60;;;;;;;1.71;100.00;98771.20;1660259;84;21393;-59
2022/11/18 10:47:31;;;;;;;6.85;5.90;;;;;;;1.71;100.00;98771.20;1657693;84;21857;-59
2022/11/18 10:50:00;;;;;;;7.10;6.40;;;;;;;1.80;100.00;98768.42;1658581;84;21053;-60
2022/11/18 10:52:28;;;;;;;7.28;6.55;;;;;;;1.84;100.00;98766.63;1660887;84;21529;-58
2022/11/18 10:55:27;;;;;;;6.28;5.67;;;;;;;1.86;100.00;98766.98;1667007;84;21186;-60
2022/11/18 10:57:57;;;;;;;7.87;7.08;;;;;;;1.88;100.00;98761.33;1613235;86;21447;-58
2022/11/18 11:00:37;;;;;;;7.05;6.35;;;;;;;1.93;100.00;98769.02;1661287;85;21876;-59
2022/11/18 11:03:28;;;;;;;7.45;6.72;;;;;;;1.97;100.00;98774.99;1655787;84;21559;-58
2022/11/18 11:06:20;;;;;;;8.20;6.65;;;;;;;1.95;100.00;98778.91;1659999;85;21041;-59
2022/11/18 11:08:53;;;;;;;11.78;6.45;;;;;;;1.90;100.00;98767.36;1638570;84;21243;-59
2022/11/18 11:11:29;;;;;;;9.00;6.83;;;;;;;1.92;100.00;98764.70;1675512;82;21110;-58
2022/11/18 11:14:29;;;;;;;7.28;6.15;;;;;;;1.93;100.00;98772.91;1663801;84;22023;-59
2022/11/18 11:17:04;;;;;;;7.45;6.70;;;;;;;1.92;100.00;98775.95;1660059;85;21648;-58
2022/11/18 11:19:42;;;;;;;8.65;6.55;;;;;;;1.94;100.00;98784.55;1655031;84;21448;-59
2022/11/18 11:22:10;;;;;;;7.50;6.62;;;;;;;1.96;100.00;98778.04;1672989;84;20976;-59
2022/11/18 11:24:38;;;;;;;7.40;6.15;;;;;;;1.98;100.00;98784.46;1659373;84;21491;-61
2022/11/18 11:27:41;;;;;;;7.33;6.07;;;;;;;1.99;100.00;98779.70;1705975;83;21815;-59
2022/11/18 11:30:21;;;;;;;6.87;6.28;;;;;;;2.00;100.00;98774.48;1668666;82;21422;-60
2022/11/18 11:33:10;;;;;;;6.58;5.97;;;;;;;1.99;100.00;98785.73;1663533;83;20998;-58
2022/11/18 11:36:10;;;;;;;8.40;6.20;;;;;;;1.99;100.00;98795.26;1656085;84;21462;-58
2022/11/18 11:39:14;;;;;;;6.97;5.75;;;;;;;1.95;100.00;98799.66;1663043;85;21524;-59
2022/11/18 11:42:05;;;;;;;8.70;6.15;;;;;;;2.02;100.00;98805.58;1656137;84;21974;-58
2022/11/18 11:45:14;;;;;;;9.08;6.20;;;;;;;2.00;100.00;98809.91;1670508;83;21549;-59
2022/11/18 11:48:09;;;;;;;8.93;5.25;;;;;;;1.95;100.00;98828.17;1704868;82;21540;-59
2022/11/18 11:50:57;;;;;;;6.62;5.92;;;;;;;1.95;100.00;98833.36;1672290;84;21427;-58
2022/11/18 11:53:51;;;;;;;7.58;5.87;;;;;;;1.98;100.00;98828.54;1670867;84;21432;-60
2022/11/18 11:57:14;;;;;;;9.03;5.20;;;;;;;1.98;100.00;98832.42;1678327;83;21882;-59
2022/11/18 12:00:04;;;;;;;6.00;5.30;;;;;;;1.91;100.00;98831.27;1635673;85;21540;-59
2022/11/18 12:03:04;;;;;;;7.37;5.70;;;;;;;1.87;100.00;98840.00;1707085;83;21037;-58
2022/11/18 12:05:41;;;;;;;6.78;5.78;;;;;;;1.83;100.00;98841.38;1636920;86;21547;-59
2022/11/18 12:08:25;;;;;;;8.93;6.12;;;;;;;1.78;100.00;98847.95;1661876;84;21445;-59
2022/11/18 12:11:16;;;;;;;7.00;6.30;;;;;;;1.80;100.00;98851.37;1661065;85;21960;-59
2022/11/18 12:14:04;;;;;;;6.20;5.55;;;;;;;1.81;100.00;98848.33;1657471;85;21010;-59
2022/11/18 12:16:49;;;;;;;7.30;6.08;;;;;;;1.82;100.00;98844.86;1656954;85;21104;-60
2022/11/18 12:19:18;;;;;;;6.78;5.87;;;;;;;1.78;100.00;98859.63;1657339;84;21604;-59
2022/11/18 12:21:50;;;;;;;6.92;6.22;;;;;;;1.76;100.00;98863.98;1670482;83;21696;-60
2022/11/18 12:24:30;;;;;;;7.12;5.92;;;;;;;1.80;100.00;98854.41;1656728;85;21803;-61
2022/11/18 12:27:03;;;;;;;6.53;5.92;;;;;;;1.80;100.00;98835.81;1655673;85;21562;-59
2022/11/18 12:29:51;;;;;;;7.80;6.12;;;;;;;1.80;100.00;98816.83;1647661;85;21576;-60
2022/11/18 12:32:26;;;;;;;;;;;;;;;1.77;100.00;98813.84;1659575;85;21498;-61
2022/11/18 12:35:07;;;;;;;7.80;6.35;;;;;;;1.69;100.00;98820.47;1656160;85;20414;-60
2022/11/18 12:37:53;;;;;;;9.33;6.08;;;;;;;1.68;100.00;98835.63;1639127;85;21787;-61
2022/11/18 12:40:39;;;;;;;9.83;5.75;;;;;;;1.62;100.00;98847.42;1648641;85;21466;-61
2022/11/18 12:43:46;;;;;;;6.75;5.75;;;;;;;1.63;100.00;98853.45;1673265;85;21532;-62
2022/11/18 12:46:42;;;;;;;9.30;6.40;;;;;;;1.61;100.00;98861.69;1657305;84;21577;-61
2022/11/18 12:49:28;;;;;;;6.85;6.15;;;;;;;1.62;100.00;98860.79;1654111;84;20990;-60
2022/11/18 12:52:00;;;;;;;5.72;5.00;;;;;;;1.64;100.00;98865.50;1699296;83;21603;-60
2022/11/18 12:54:34;;;;;;;7.17;6.45;;;;;;;1.66;100.00;98878.02;1667058;84;21015;-59
2022/11/18 12:57:22;;;;;;;7.15;6.45;;;;;;;1.66;100.00;98868.95;1668135;82;21465;-61
2022/11/18 12:59:49;;;;;;;6.45;5.78;;;;;;;1.67;100.00;98875.37;1657569;85;21549;-60
2022/11/18 13:02:26;;;;;;;6.53;5.93;;;;;;;1.71;100.00;98880.05;1657006;84;21617;-60
2022/11/18 13:05:05;;;;;;;;;;;;;;;1.75;100.00;98889.48;1661543;84;21890;-60
2022/11/18 13:10:33;;;;;;;7.67;6.08;;;;;;;1.72;100.00;98880.48;1658462;85;21021;-60
2022/11/18 13:13:00;;;;;;;8.38;6.53;;;;;;;1.68;100.00;98869.31;1672460;83;20997;-59
2022/11/18 13:18:17;;;;;;;7.85;6.92;;;;;;;1.72;100.00;98858.45;1657249;84;21899;-59
2022/11/18 13:20:56;;;;;;;6.85;6.25;;;;;;;1.70;100.00;98849.41;1670581;83;21516;-59
2022/11/18 13:26:28;;;;;;;7.20;6.53;;;;;;;1.70;100.00;98845.97;1674506;82;21615;-60
2022/11/18 13:29:15;;;;;;;6.20;5.65;;;;;;;1.64;100.00;98841.76;1673518;83;21556;-60
2022/11/18 13:31:48;;;;;;;;;;;;;;;1.65;100.00;98852.52;1705875;83;21792;-60
2022/11/18 13:34:24;;;;;;;5.75;5.17;;;;;;;1.51;100.00;98851.50;1657926;83;20511;-60
2022/11/18 13:36:52;;;;;;;6.65;6.05;;;;;;;1.52;100.00;98854.94;1636454;85;21526;-60
2022/11/18 13:39:25;;;;;;;7.08;6.42;;;;;;;1.52;100.00;98860.96;1659800;84;21487;-60
2022/11/18 13:42:06;;;;;;;6.83;6.10;;;;;;;1.55;100.00;98857.03;1660242;84;21438;-60
2022/11/18 13:44:36;;;;;;;6.78;5.78;;;;;;;1.55;100.00;98860.07;1659856;85;21922;-60
2022/11/18 13:47:29;;;;;;;7.97;7.00;;;;;;;1.54;100.00;98859.64;1659447;84;21518;-60
2022/11/18 13:50:27;;;;;;;7.30;6.55;;;;;;;1.54;100.00;98876.06;1658935;84;21610;-61
2022/11/18 13:53:29;;;;;;;7.58;5.90;;;;;;;1.49;100.00;98873.99;1656040;85;21545;-60
2022/11/18 13:56:05;;;;;;;8.35;6.75;;;;;;;1.46;100.00;98890.03;1653892;85;20978;-60
2022/11/18 13:58:55;;;;;;;7.08;6.47;;;;;;;1.47;100.00;98888.71;1649997;85;21753;-60
2022/11/18 14:01:28;;;;;;;8.85;6.92;;;;;;;1.52;100.00;98882.14;1660072;85;21498;-61
2022/11/18 14:03:58;;;;;;;7.45;6.75;;;;;;;1.54;100.00;98881.66;1658530;84;21597;-60
2022/11/18 14:06:30;;;;;;;7.97;7.03;;;;;;;1.55;100.00;98889.42;1654233;84;21529;-60
2022/11/18 16:07:15;;;;;;;6.62;5.72;;;;;;;-0.88;100.00;98913.77;1688616;83;21560;-66
2022/11/18 16:12:46;;;;;;;8.85;6.75;;;;;;;-0.34;100.00;98908.96;1680135;84;21508;-64
2022/11/18 16:18:00;;;;;;;8.00;6.92;;;;;;;0.02;100.00;98895.61;1680697;83;21570;-64
2022/11/18 16:20:28;;;;;;;8.20;6.65;;;;;;;0.21;100.00;98889.78;1680664;84;21586;-65
2022/11/18 16:22:55;;;;;;;10.55;7.50;;;;;;;0.33;100.00;98886.59;1682662;84;22082;-64
2022/11/18 16:25:23;;;;;;;10.80;8.58;;;;;;;0.46;100.00;98879.53;1680115;84;21486;-65